sensor_id;sensor_type;location;lat;lon;timestamp;P1;durP1;ratioP1;P2;durP2;ratioP2
46090;SDS011;31826;53.572;10.170;2023-02-01T00:01:43;20.90;;;3.05;;
46090;SDS011;31826;53.572;10.170;2023-02-01T00:04:09;15.73;;;3.28;;
46090;SDS011;31826;53.572;10.170;2023-02-01T00:06:35;18.70;;;3.13;;
46090;SDS011;31826;53.572;10.170;2023-02-01T00:09:01;13.47;;;2.97;;
46090;SDS011;31826;53.572;10.170;2023-02-01T00:11:27;21.65;;;3.67;;
46090;SDS011;31826;53.572;10.170;2023-02-01T00:13:53;16.83;;;2.92;;
46090;SDS011;31826;53.572;10.170;2023-02-01T00:16:23;16.45;;;2.90;;
46090;SDS011;31826;53.572;10.170;2023-02-01T00:18:55;21.30;;;3.00;;
46090;SDS011;31826;53.572;10.170;2023-02-01T00:21:32;17.02;;;3.38;;
46090;SDS011;31826;53.572;10.170;2023-02-01T00:23:58;18.20;;;3.63;;
46090;SDS011;31826;53.572;10.170;2023-02-01T00:26:34;15.45;;;2.85;;
46090;SDS011;31826;53.572;10.170;2023-02-01T00:29:02;18.63;;;2.40;;
46090;SDS011;31826;53.572;10.170;2023-02-01T00:31:29;16.33;;;2.95;;
46090;SDS011;31826;53.572;10.170;2023-02-01T00:33:54;15.67;;;3.07;;
46090;SDS011;31826;53.572;10.170;2023-02-01T00:36:20;19.97;;;2.57;;
46090;SDS011;31826;53.572;10.170;2023-02-01T00:38:46;17.63;;;3.37;;
46090;SDS011;31826;53.572;10.170;2023-02-01T00:41:16;16.80;;;3.30;;
46090;SDS011;31826;53.572;10.170;2023-02-01T00:43:43;14.98;;;3.20;;
46090;SDS011;31826;53.572;10.170;2023-02-01T00:46:10;22.10;;;2.88;;
46090;SDS011;31826;53.572;10.170;2023-02-01T00:48:37;16.92;;;3.53;;
46090;SDS011;31826;53.572;10.170;2023-02-01T00:51:04;20.73;;;3.17;;
46090;SDS011;31826;53.572;10.170;2023-02-01T00:53:34;24.77;;;3.38;;
46090;SDS011;31826;53.572;10.170;2023-02-01T00:56:01;15.02;;;3.42;;
46090;SDS011;31826;53.572;10.170;2023-02-01T00:58:27;23.85;;;3.53;;
46090;SDS011;31826;53.572;10.170;2023-02-01T01:03:58;15.52;;;3.00;;
46090;SDS011;31826;53.572;10.170;2023-02-01T01:06:25;19.08;;;3.53;;
46090;SDS011;31826;53.572;10.170;2023-02-01T01:08:53;20.30;;;3.75;;
46090;SDS011;31826;53.572;10.170;2023-02-01T01:11:22;19.07;;;3.80;;
46090;SDS011;31826;53.572;10.170;2023-02-01T01:13:50;21.38;;;4.22;;
46090;SDS011;31826;53.572;10.170;2023-02-01T01:16:17;17.27;;;3.08;;
46090;SDS011;31826;53.572;10.170;2023-02-01T01:18:44;22.33;;;3.57;;
46090;SDS011;31826;53.572;10.170;2023-02-01T01:21:11;19.05;;;3.55;;
46090;SDS011;31826;53.572;10.170;2023-02-01T01:23:38;31.00;;;4.53;;
46090;SDS011;31826;53.572;10.170;2023-02-01T01:26:08;26.02;;;4.75;;
46090;SDS011;31826;53.572;10.170;2023-02-01T01:28:35;18.45;;;4.15;;
46090;SDS011;31826;53.572;10.170;2023-02-01T01:31:01;21.88;;;3.97;;
46090;SDS011;31826;53.572;10.170;2023-02-01T01:33:27;21.02;;;4.00;;
46090;SDS011;31826;53.572;10.170;2023-02-01T01:35:53;17.95;;;3.97;;
46090;SDS011;31826;53.572;10.170;2023-02-01T01:38:19;27.80;;;4.30;;
46090;SDS011;31826;53.572;10.170;2023-02-01T01:40:45;21.58;;;3.67;;
46090;SDS011;31826;53.572;10.170;2023-02-01T01:43:15;16.60;;;3.17;;
46090;SDS011;31826;53.572;10.170;2023-02-01T01:45:44;27.17;;;4.03;;
46090;SDS011;31826;53.572;10.170;2023-02-01T01:48:25;21.85;;;4.15;;
46090;SDS011;31826;53.572;10.170;2023-02-01T01:51:02;21.85;;;3.92;;
46090;SDS011;31826;53.572;10.170;2023-02-01T01:53:37;21.45;;;3.40;;
46090;SDS011;31826;53.572;10.170;2023-02-01T01:56:08;21.30;;;4.53;;
46090;SDS011;31826;53.572;10.170;2023-02-01T01:58:34;28.77;;;4.33;;
46090;SDS011;31826;53.572;10.170;2023-02-01T02:01:01;20.23;;;3.73;;
46090;SDS011;31826;53.572;10.170;2023-02-01T02:03:45;16.88;;;3.22;;
46090;SDS011;31826;53.572;10.170;2023-02-01T02:06:34;16.67;;;3.75;;
46090;SDS011;31826;53.572;10.170;2023-02-01T02:09:02;18.05;;;3.35;;
46090;SDS011;31826;53.572;10.170;2023-02-01T02:11:28;20.70;;;3.97;;
46090;SDS011;31826;53.572;10.170;2023-02-01T02:13:54;23.95;;;4.32;;
46090;SDS011;31826;53.572;10.170;2023-02-01T02:16:28;17.07;;;3.57;;
46090;SDS011;31826;53.572;10.170;2023-02-01T02:30:50;22.30;;;3.97;;
46090;SDS011;31826;53.572;10.170;2023-02-01T02:33:22;19.60;;;4.50;;
46090;SDS011;31826;53.572;10.170;2023-02-01T02:36:09;23.85;;;4.30;;
46090;SDS011;31826;53.572;10.170;2023-02-01T02:38:53;18.23;;;4.40;;
46090;SDS011;31826;53.572;10.170;2023-02-01T02:44:35;21.13;;;4.18;;
46090;SDS011;31826;53.572;10.170;2023-02-01T02:47:35;25.55;;;4.78;;
46090;SDS011;31826;53.572;10.170;2023-02-01T02:50:11;20.65;;;3.45;;
46090;SDS011;31826;53.572;10.170;2023-02-01T02:53:15;22.80;;;3.42;;
46090;SDS011;31826;53.572;10.170;2023-02-01T02:56:03;19.13;;;3.60;;
46090;SDS011;31826;53.572;10.170;2023-02-01T02:58:48;19.53;;;3.87;;
46090;SDS011;31826;53.572;10.170;2023-02-01T03:01:34;25.58;;;3.70;;
46090;SDS011;31826;53.572;10.170;2023-02-01T03:04:18;21.05;;;3.40;;
46090;SDS011;31826;53.572;10.170;2023-02-01T03:06:45;26.50;;;4.60;;
46090;SDS011;31826;53.572;10.170;2023-02-01T03:09:13;19.90;;;4.55;;
46090;SDS011;31826;53.572;10.170;2023-02-01T03:12:00;22.60;;;4.03;;
46090;SDS011;31826;53.572;10.170;2023-02-01T03:14:50;17.95;;;3.65;;
46090;SDS011;31826;53.572;10.170;2023-02-01T03:17:22;20.70;;;3.53;;
46090;SDS011;31826;53.572;10.170;2023-02-01T03:19:55;23.52;;;4.10;;
46090;SDS011;31826;53.572;10.170;2023-02-01T03:22:26;16.92;;;3.75;;
46090;SDS011;31826;53.572;10.170;2023-02-01T03:25:01;31.00;;;4.82;;
46090;SDS011;31826;53.572;10.170;2023-02-01T03:27:36;27.45;;;3.72;;
46090;SDS011;31826;53.572;10.170;2023-02-01T03:30:18;16.73;;;3.38;;
46090;SDS011;31826;53.572;10.170;2023-02-01T03:32:46;15.38;;;3.38;;
46090;SDS011;31826;53.572;10.170;2023-02-01T03:35:30;26.02;;;4.25;;
46090;SDS011;31826;53.572;10.170;2023-02-01T03:38:19;18.92;;;3.83;;
46090;SDS011;31826;53.572;10.170;2023-02-01T03:41:32;18.65;;;3.17;;
46090;SDS011;31826;53.572;10.170;2023-02-01T03:43:41;10.00;;;2.20;;
46090;SDS011;31826;53.572;10.170;2023-02-01T03:46:15;15.15;;;2.75;;
46090;SDS011;31826;53.572;10.170;2023-02-01T03:48:46;13.48;;;2.88;;
46090;SDS011;31826;53.572;10.170;2023-02-01T03:51:14;12.30;;;2.57;;
46090;SDS011;31826;53.572;10.170;2023-02-01T03:53:40;16.00;;;2.63;;
46090;SDS011;31826;53.572;10.170;2023-02-01T03:56:11;12.90;;;2.67;;
46090;SDS011;31826;53.572;10.170;2023-02-01T03:58:38;18.60;;;2.83;;
46090;SDS011;31826;53.572;10.170;2023-02-01T04:01:03;10.57;;;2.33;;
46090;SDS011;31826;53.572;10.170;2023-02-01T04:03:29;13.20;;;2.38;;
46090;SDS011;31826;53.572;10.170;2023-02-01T04:05:55;12.23;;;2.72;;
46090;SDS011;31826;53.572;10.170;2023-02-01T04:08:21;11.48;;;2.38;;
46090;SDS011;31826;53.572;10.170;2023-02-01T04:10:47;12.70;;;2.53;;
46090;SDS011;31826;53.572;10.170;2023-02-01T04:13:13;11.27;;;2.17;;
46090;SDS011;31826;53.572;10.170;2023-02-01T04:15:39;14.83;;;3.10;;
46090;SDS011;31826;53.572;10.170;2023-02-01T04:18:05;15.32;;;2.78;;
46090;SDS011;31826;53.572;10.170;2023-02-01T04:20:31;12.60;;;2.00;;
46090;SDS011;31826;53.572;10.170;2023-02-01T04:22:57;13.85;;;2.30;;
46090;SDS011;31826;53.572;10.170;2023-02-01T04:25:22;11.30;;;2.60;;
46090;SDS011;31826;53.572;10.170;2023-02-01T04:27:48;11.77;;;2.20;;
46090;SDS011;31826;53.572;10.170;2023-02-01T04:30:14;13.45;;;2.83;;
46090;SDS011;31826;53.572;10.170;2023-02-01T04:32:40;14.80;;;3.22;;
46090;SDS011;31826;53.572;10.170;2023-02-01T04:35:07;16.67;;;3.13;;
46090;SDS011;31826;53.572;10.170;2023-02-01T04:37:33;14.45;;;2.60;;
46090;SDS011;31826;53.572;10.170;2023-02-01T04:39:59;13.32;;;2.42;;
46090;SDS011;31826;53.572;10.170;2023-02-01T04:42:24;13.83;;;2.40;;
46090;SDS011;31826;53.572;10.170;2023-02-01T04:44:50;12.90;;;2.28;;
46090;SDS011;31826;53.572;10.170;2023-02-01T04:47:16;13.40;;;2.80;;
46090;SDS011;31826;53.572;10.170;2023-02-01T04:49:42;16.67;;;3.03;;
46090;SDS011;31826;53.572;10.170;2023-02-01T04:52:07;10.55;;;2.20;;
46090;SDS011;31826;53.572;10.170;2023-02-01T04:54:33;9.67;;;2.10;;
46090;SDS011;31826;53.572;10.170;2023-02-01T04:56:59;10.37;;;1.90;;
46090;SDS011;31826;53.572;10.170;2023-02-01T04:59:25;7.83;;;2.27;;
46090;SDS011;31826;53.572;10.170;2023-02-01T05:01:51;10.82;;;2.20;;
46090;SDS011;31826;53.572;10.170;2023-02-01T05:04:17;13.00;;;2.17;;
46090;SDS011;31826;53.572;10.170;2023-02-01T05:06:43;13.02;;;2.20;;
46090;SDS011;31826;53.572;10.170;2023-02-01T05:09:10;15.82;;;2.35;;
46090;SDS011;31826;53.572;10.170;2023-02-01T05:11:35;7.00;;;1.65;;
46090;SDS011;31826;53.572;10.170;2023-02-01T05:14:20;7.57;;;1.58;;
46090;SDS011;31826;53.572;10.170;2023-02-01T05:16:47;7.95;;;1.85;;
46090;SDS011;31826;53.572;10.170;2023-02-01T05:19:13;8.82;;;1.55;;
46090;SDS011;31826;53.572;10.170;2023-02-01T05:21:39;5.13;;;1.30;;
46090;SDS011;31826;53.572;10.170;2023-02-01T05:24:05;3.28;;;1.02;;
46090;SDS011;31826;53.572;10.170;2023-02-01T05:26:35;3.67;;;1.10;;
46090;SDS011;31826;53.572;10.170;2023-02-01T05:29:01;3.53;;;1.17;;
46090;SDS011;31826;53.572;10.170;2023-02-01T05:31:27;2.60;;;0.93;;
46090;SDS011;31826;53.572;10.170;2023-02-01T05:33:53;2.85;;;0.88;;
46090;SDS011;31826;53.572;10.170;2023-02-01T05:36:19;2.40;;;0.80;;
46090;SDS011;31826;53.572;10.170;2023-02-01T05:38:45;2.30;;;0.98;;
46090;SDS011;31826;53.572;10.170;2023-02-01T05:41:11;2.28;;;0.80;;
46090;SDS011;31826;53.572;10.170;2023-02-01T05:43:36;2.25;;;0.95;;
46090;SDS011;31826;53.572;10.170;2023-02-01T05:46:02;2.50;;;0.90;;
46090;SDS011;31826;53.572;10.170;2023-02-01T05:48:28;1.73;;;0.80;;
46090;SDS011;31826;53.572;10.170;2023-02-01T05:50:54;1.08;;;0.77;;
46090;SDS011;31826;53.572;10.170;2023-02-01T05:53:19;4.20;;;1.00;;
46090;SDS011;31826;53.572;10.170;2023-02-01T05:55:45;3.97;;;1.00;;
46090;SDS011;31826;53.572;10.170;2023-02-01T05:58:11;2.40;;;1.40;;
46090;SDS011;31826;53.572;10.170;2023-02-01T06:00:37;1.70;;;1.00;;
46090;SDS011;31826;53.572;10.170;2023-02-01T06:03:03;3.22;;;1.00;;
46090;SDS011;31826;53.572;10.170;2023-02-01T06:05:29;3.20;;;1.00;;
46090;SDS011;31826;53.572;10.170;2023-02-01T06:07:54;1.40;;;0.80;;
46090;SDS011;31826;53.572;10.170;2023-02-01T06:10:20;2.70;;;1.00;;
46090;SDS011;31826;53.572;10.170;2023-02-01T06:12:46;1.17;;;1.00;;
46090;SDS011;31826;53.572;10.170;2023-02-01T06:15:12;1.67;;;0.88;;
46090;SDS011;31826;53.572;10.170;2023-02-01T06:17:40;1.25;;;1.00;;
46090;SDS011;31826;53.572;10.170;2023-02-01T06:20:08;1.30;;;0.90;;
46090;SDS011;31826;53.572;10.170;2023-02-01T06:22:35;2.92;;;1.20;;
46090;SDS011;31826;53.572;10.170;2023-02-01T06:25:01;3.17;;;1.27;;
46090;SDS011;31826;53.572;10.170;2023-02-01T06:27:28;3.85;;;1.08;;
46090;SDS011;31826;53.572;10.170;2023-02-01T06:29:54;3.30;;;1.40;;
46090;SDS011;31826;53.572;10.170;2023-02-01T06:32:21;2.67;;;1.15;;
46090;SDS011;31826;53.572;10.170;2023-02-01T06:34:47;5.00;;;1.45;;
46090;SDS011;31826;53.572;10.170;2023-02-01T06:37:13;4.50;;;1.73;;
46090;SDS011;31826;53.572;10.170;2023-02-01T06:39:39;4.53;;;1.23;;
46090;SDS011;31826;53.572;10.170;2023-02-01T06:42:05;3.65;;;1.33;;
46090;SDS011;31826;53.572;10.170;2023-02-01T06:44:30;4.88;;;1.83;;
46090;SDS011;31826;53.572;10.170;2023-02-01T06:46:56;4.03;;;1.43;;
46090;SDS011;31826;53.572;10.170;2023-02-01T06:49:22;9.63;;;2.73;;
46090;SDS011;31826;53.572;10.170;2023-02-01T06:51:48;7.57;;;2.15;;
46090;SDS011;31826;53.572;10.170;2023-02-01T06:54:13;7.07;;;1.60;;
46090;SDS011;31826;53.572;10.170;2023-02-01T06:56:39;5.53;;;2.08;;
46090;SDS011;31826;53.572;10.170;2023-02-01T06:59:05;10.35;;;1.75;;
46090;SDS011;31826;53.572;10.170;2023-02-01T07:01:32;10.23;;;2.10;;
46090;SDS011;31826;53.572;10.170;2023-02-01T07:03:58;6.22;;;1.80;;
46090;SDS011;31826;53.572;10.170;2023-02-01T07:06:24;6.03;;;1.83;;
46090;SDS011;31826;53.572;10.170;2023-02-01T07:08:50;13.70;;;1.88;;
46090;SDS011;31826;53.572;10.170;2023-02-01T07:11:16;9.67;;;1.73;;
46090;SDS011;31826;53.572;10.170;2023-02-01T07:13:43;8.77;;;2.00;;
46090;SDS011;31826;53.572;10.170;2023-02-01T07:16:16;7.30;;;2.08;;
46090;SDS011;31826;53.572;10.170;2023-02-01T07:18:43;9.55;;;1.90;;
46090;SDS011;31826;53.572;10.170;2023-02-01T07:21:09;6.82;;;2.08;;
46090;SDS011;31826;53.572;10.170;2023-02-01T07:23:35;10.38;;;2.78;;
46090;SDS011;31826;53.572;10.170;2023-02-01T07:26:02;10.75;;;2.40;;
46090;SDS011;31826;53.572;10.170;2023-02-01T07:28:30;16.23;;;2.78;;
46090;SDS011;31826;53.572;10.170;2023-02-01T07:31:07;15.00;;;2.97;;
46090;SDS011;31826;53.572;10.170;2023-02-01T07:33:35;20.17;;;3.50;;
46090;SDS011;31826;53.572;10.170;2023-02-01T07:36:01;20.37;;;2.90;;
46090;SDS011;31826;53.572;10.170;2023-02-01T07:38:29;13.85;;;2.92;;
46090;SDS011;31826;53.572;10.170;2023-02-01T07:40:58;19.33;;;3.27;;
46090;SDS011;31826;53.572;10.170;2023-02-01T07:43:25;16.52;;;3.00;;
46090;SDS011;31826;53.572;10.170;2023-02-01T07:45:51;16.17;;;2.90;;
46090;SDS011;31826;53.572;10.170;2023-02-01T07:48:18;17.77;;;2.95;;
46090;SDS011;31826;53.572;10.170;2023-02-01T07:50:44;14.07;;;2.70;;
46090;SDS011;31826;53.572;10.170;2023-02-01T07:53:09;11.83;;;2.40;;
46090;SDS011;31826;53.572;10.170;2023-02-01T07:55:38;9.17;;;2.47;;
46090;SDS011;31826;53.572;10.170;2023-02-01T07:58:04;15.98;;;3.10;;
46090;SDS011;31826;53.572;10.170;2023-02-01T08:00:30;16.08;;;3.00;;
46090;SDS011;31826;53.572;10.170;2023-02-01T08:03:14;11.55;;;2.63;;
46090;SDS011;31826;53.572;10.170;2023-02-01T08:05:40;15.35;;;3.13;;
46090;SDS011;31826;53.572;10.170;2023-02-01T08:08:06;17.58;;;3.20;;
46090;SDS011;31826;53.572;10.170;2023-02-01T08:10:32;17.55;;;3.83;;
46090;SDS011;31826;53.572;10.170;2023-02-01T08:12:59;16.48;;;3.50;;
46090;SDS011;31826;53.572;10.170;2023-02-01T08:15:27;17.33;;;3.93;;
46090;SDS011;31826;53.572;10.170;2023-02-01T08:17:53;24.45;;;4.38;;
46090;SDS011;31826;53.572;10.170;2023-02-01T08:20:20;19.17;;;3.03;;
46090;SDS011;31826;53.572;10.170;2023-02-01T08:22:47;23.83;;;3.77;;
46090;SDS011;31826;53.572;10.170;2023-02-01T08:25:14;19.05;;;3.35;;
46090;SDS011;31826;53.572;10.170;2023-02-01T08:27:40;17.07;;;3.50;;
46090;SDS011;31826;53.572;10.170;2023-02-01T08:30:05;22.17;;;4.33;;
46090;SDS011;31826;53.572;10.170;2023-02-01T08:32:32;22.35;;;4.43;;
46090;SDS011;31826;53.572;10.170;2023-02-01T08:34:59;17.77;;;4.28;;
46090;SDS011;31826;53.572;10.170;2023-02-01T08:37:25;21.83;;;3.70;;
46090;SDS011;31826;53.572;10.170;2023-02-01T08:39:50;19.87;;;3.90;;
46090;SDS011;31826;53.572;10.170;2023-02-01T08:42:17;20.00;;;3.47;;
46090;SDS011;31826;53.572;10.170;2023-02-01T08:45:01;17.27;;;3.13;;
46090;SDS011;31826;53.572;10.170;2023-02-01T08:47:28;21.55;;;3.35;;
46090;SDS011;31826;53.572;10.170;2023-02-01T08:49:55;17.17;;;3.13;;
46090;SDS011;31826;53.572;10.170;2023-02-01T08:52:21;11.02;;;3.10;;
46090;SDS011;31826;53.572;10.170;2023-02-01T08:54:46;16.92;;;3.70;;
46090;SDS011;31826;53.572;10.170;2023-02-01T08:57:12;10.60;;;3.08;;
46090;SDS011;31826;53.572;10.170;2023-02-01T08:59:38;11.57;;;2.50;;
46090;SDS011;31826;53.572;10.170;2023-02-01T09:02:04;12.82;;;2.70;;
46090;SDS011;31826;53.572;10.170;2023-02-01T09:04:30;15.68;;;2.97;;
46090;SDS011;31826;53.572;10.170;2023-02-01T09:06:55;18.02;;;3.08;;
46090;SDS011;31826;53.572;10.170;2023-02-01T09:09:22;17.15;;;2.97;;
46090;SDS011;31826;53.572;10.170;2023-02-01T09:11:48;15.30;;;3.28;;
46090;SDS011;31826;53.572;10.170;2023-02-01T09:14:15;15.23;;;2.72;;
46090;SDS011;31826;53.572;10.170;2023-02-01T09:16:41;15.00;;;4.05;;
46090;SDS011;31826;53.572;10.170;2023-02-01T09:19:07;22.15;;;3.20;;
46090;SDS011;31826;53.572;10.170;2023-02-01T09:21:33;15.15;;;2.70;;
46090;SDS011;31826;53.572;10.170;2023-02-01T09:23:59;15.82;;;3.08;;
46090;SDS011;31826;53.572;10.170;2023-02-01T09:26:25;17.73;;;3.67;;
46090;SDS011;31826;53.572;10.170;2023-02-01T09:28:50;17.57;;;3.23;;
46090;SDS011;31826;53.572;10.170;2023-02-01T09:31:16;16.88;;;2.90;;
46090;SDS011;31826;53.572;10.170;2023-02-01T09:33:42;19.20;;;2.95;;
46090;SDS011;31826;53.572;10.170;2023-02-01T09:36:08;22.45;;;3.65;;
46090;SDS011;31826;53.572;10.170;2023-02-01T09:38:34;20.25;;;3.30;;
46090;SDS011;31826;53.572;10.170;2023-02-01T09:41:00;15.63;;;3.05;;
46090;SDS011;31826;53.572;10.170;2023-02-01T09:46:31;14.70;;;2.47;;
46090;SDS011;31826;53.572;10.170;2023-02-01T09:49:04;16.80;;;3.50;;
46090;SDS011;31826;53.572;10.170;2023-02-01T09:51:56;15.80;;;2.88;;
46090;SDS011;31826;53.572;10.170;2023-02-01T09:54:26;15.27;;;2.78;;
46090;SDS011;31826;53.572;10.170;2023-02-01T09:57:17;24.53;;;3.73;;
46090;SDS011;31826;53.572;10.170;2023-02-01T10:02:47;17.47;;;4.40;;
46090;SDS011;31826;53.572;10.170;2023-02-01T10:05:15;23.10;;;3.95;;
46090;SDS011;31826;53.572;10.170;2023-02-01T10:07:51;21.83;;;3.35;;
46090;SDS011;31826;53.572;10.170;2023-02-01T10:10:47;17.05;;;2.92;;
46090;SDS011;31826;53.572;10.170;2023-02-01T10:24:21;19.00;;;3.47;;
46090;SDS011;31826;53.572;10.170;2023-02-01T10:26:59;13.18;;;2.95;;
46090;SDS011;31826;53.572;10.170;2023-02-01T10:29:32;15.30;;;2.60;;
46090;SDS011;31826;53.572;10.170;2023-02-01T10:32:02;15.70;;;2.72;;
46090;SDS011;31826;53.572;10.170;2023-02-01T10:34:33;16.55;;;2.42;;
46090;SDS011;31826;53.572;10.170;2023-02-01T10:37:46;19.20;;;3.47;;
46090;SDS011;31826;53.572;10.170;2023-02-01T10:39:54;15.07;;;3.28;;
46090;SDS011;31826;53.572;10.170;2023-02-01T10:42:22;13.75;;;2.63;;
46090;SDS011;31826;53.572;10.170;2023-02-01T10:44:54;13.55;;;2.63;;
46090;SDS011;31826;53.572;10.170;2023-02-01T10:47:24;13.93;;;2.28;;
46090;SDS011;31826;53.572;10.170;2023-02-01T10:50:11;17.67;;;3.05;;
46090;SDS011;31826;53.572;10.170;2023-02-01T10:55:29;18.07;;;3.73;;
46090;SDS011;31826;53.572;10.170;2023-02-01T10:58:00;16.20;;;3.17;;
46090;SDS011;31826;53.572;10.170;2023-02-01T11:00:28;15.90;;;3.22;;
46090;SDS011;31826;53.572;10.170;2023-02-01T11:04:07;16.25;;;3.50;;
46090;SDS011;31826;53.572;10.170;2023-02-01T11:06:16;13.60;;;3.28;;
46090;SDS011;31826;53.572;10.170;2023-02-01T11:08:54;18.75;;;3.85;;
46090;SDS011;31826;53.572;10.170;2023-02-01T11:11:22;15.32;;;2.70;;
46090;SDS011;31826;53.572;10.170;2023-02-01T11:13:52;19.33;;;4.00;;
46090;SDS011;31826;53.572;10.170;2023-02-01T11:16:20;15.50;;;3.00;;
46090;SDS011;31826;53.572;10.170;2023-02-01T11:18:46;18.73;;;3.10;;
46090;SDS011;31826;53.572;10.170;2023-02-01T11:21:19;14.95;;;3.33;;
46090;SDS011;31826;53.572;10.170;2023-02-01T11:23:46;16.38;;;3.10;;
46090;SDS011;31826;53.572;10.170;2023-02-01T11:26:13;15.25;;;2.75;;
46090;SDS011;31826;53.572;10.170;2023-02-01T11:28:50;14.48;;;3.40;;
46090;SDS011;31826;53.572;10.170;2023-02-01T11:31:22;17.20;;;3.83;;
46090;SDS011;31826;53.572;10.170;2023-02-01T11:33:52;16.80;;;3.42;;
46090;SDS011;31826;53.572;10.170;2023-02-01T11:36:31;21.13;;;4.03;;
46090;SDS011;31826;53.572;10.170;2023-02-01T11:39:10;21.48;;;3.70;;
46090;SDS011;31826;53.572;10.170;2023-02-01T11:42:13;15.45;;;3.13;;
46090;SDS011;31826;53.572;10.170;2023-02-01T11:44:44;16.27;;;2.60;;
46090;SDS011;31826;53.572;10.170;2023-02-01T11:49:48;17.25;;;2.78;;
46090;SDS011;31826;53.572;10.170;2023-02-01T11:57:43;11.07;;;2.45;;
46090;SDS011;31826;53.572;10.170;2023-02-01T12:00:46;18.45;;;3.63;;
46090;SDS011;31826;53.572;10.170;2023-02-01T12:08:52;11.23;;;2.40;;
46090;SDS011;31826;53.572;10.170;2023-02-01T12:17:11;6.80;;;1.60;;
46090;SDS011;31826;53.572;10.170;2023-02-01T12:19:45;10.18;;;2.30;;
46090;SDS011;31826;53.572;10.170;2023-02-01T12:25:27;10.75;;;2.72;;
46090;SDS011;31826;53.572;10.170;2023-02-01T12:33:37;8.60;;;2.40;;
46090;SDS011;31826;53.572;10.170;2023-02-01T12:39:02;9.23;;;2.33;;
46090;SDS011;31826;53.572;10.170;2023-02-01T12:52:06;10.52;;;2.17;;
46090;SDS011;31826;53.572;10.170;2023-02-01T12:54:38;6.32;;;1.85;;
46090;SDS011;31826;53.572;10.170;2023-02-01T12:57:21;7.63;;;1.75;;
46090;SDS011;31826;53.572;10.170;2023-02-01T12:59:56;2.67;;;1.40;;
46090;SDS011;31826;53.572;10.170;2023-02-01T13:05:24;5.90;;;1.60;;
46090;SDS011;31826;53.572;10.170;2023-02-01T13:08:01;3.83;;;1.02;;
46090;SDS011;31826;53.572;10.170;2023-02-01T13:10:43;2.92;;;1.42;;
46090;SDS011;31826;53.572;10.170;2023-02-01T13:13:39;3.20;;;1.10;;
46090;SDS011;31826;53.572;10.170;2023-02-01T13:16:30;3.90;;;1.30;;
46090;SDS011;31826;53.572;10.170;2023-02-01T13:19:04;4.35;;;1.80;;
46090;SDS011;31826;53.572;10.170;2023-02-01T13:21:43;2.80;;;1.23;;
46090;SDS011;31826;53.572;10.170;2023-02-01T13:24:21;1.67;;;1.20;;
46090;SDS011;31826;53.572;10.170;2023-02-01T13:26:54;1.65;;;0.90;;
46090;SDS011;31826;53.572;10.170;2023-02-01T13:29:20;3.55;;;1.20;;
46090;SDS011;31826;53.572;10.170;2023-02-01T13:38:06;3.08;;;1.20;;
46090;SDS011;31826;53.572;10.170;2023-02-01T13:43:38;2.88;;;1.00;;
46090;SDS011;31826;53.572;10.170;2023-02-01T13:46:07;1.30;;;0.98;;
46090;SDS011;31826;53.572;10.170;2023-02-01T13:48:50;3.40;;;1.30;;
46090;SDS011;31826;53.572;10.170;2023-02-01T13:51:29;2.65;;;1.50;;
46090;SDS011;31826;53.572;10.170;2023-02-01T13:53:56;2.40;;;1.08;;
46090;SDS011;31826;53.572;10.170;2023-02-01T13:56:22;3.37;;;1.07;;
46090;SDS011;31826;53.572;10.170;2023-02-01T13:58:49;4.93;;;1.20;;
46090;SDS011;31826;53.572;10.170;2023-02-01T14:03:48;5.68;;;1.40;;
46090;SDS011;31826;53.572;10.170;2023-02-01T14:16:41;3.50;;;1.13;;
46090;SDS011;31826;53.572;10.170;2023-02-01T14:19:08;4.38;;;1.00;;
46090;SDS011;31826;53.572;10.170;2023-02-01T14:21:51;2.38;;;1.10;;
46090;SDS011;31826;53.572;10.170;2023-02-01T14:26:51;6.63;;;1.45;;
46090;SDS011;31826;53.572;10.170;2023-02-01T14:29:35;8.85;;;1.88;;
46090;SDS011;31826;53.572;10.170;2023-02-01T14:34:33;3.08;;;1.40;;
46090;SDS011;31826;53.572;10.170;2023-02-01T14:42:19;4.50;;;1.40;;
46090;SDS011;31826;53.572;10.170;2023-02-01T14:47:48;3.42;;;1.23;;
46090;SDS011;31826;53.572;10.170;2023-02-01T15:01:29;5.45;;;1.30;;
46090;SDS011;31826;53.572;10.170;2023-02-01T15:06:33;3.85;;;1.30;;
46090;SDS011;31826;53.572;10.170;2023-02-01T15:14:24;6.68;;;2.00;;
46090;SDS011;31826;53.572;10.170;2023-02-01T15:16:51;10.82;;;2.42;;
46090;SDS011;31826;53.572;10.170;2023-02-01T15:19:21;9.32;;;1.80;;
46090;SDS011;31826;53.572;10.170;2023-02-01T15:21:50;6.97;;;1.65;;
46090;SDS011;31826;53.572;10.170;2023-02-01T15:24:19;8.95;;;1.90;;
46090;SDS011;31826;53.572;10.170;2023-02-01T15:26:45;10.00;;;2.00;;
46090;SDS011;31826;53.572;10.170;2023-02-01T15:29:11;9.98;;;2.25;;
46090;SDS011;31826;53.572;10.170;2023-02-01T15:31:39;9.18;;;2.03;;
46090;SDS011;31826;53.572;10.170;2023-02-01T15:34:07;9.75;;;2.38;;
46090;SDS011;31826;53.572;10.170;2023-02-01T15:36:34;13.82;;;2.75;;
46090;SDS011;31826;53.572;10.170;2023-02-01T15:39:12;13.93;;;2.78;;
46090;SDS011;31826;53.572;10.170;2023-02-01T15:41:43;13.83;;;2.40;;
46090;SDS011;31826;53.572;10.170;2023-02-01T15:44:33;13.98;;;2.83;;
46090;SDS011;31826;53.572;10.170;2023-02-01T15:47:06;14.93;;;2.83;;
46090;SDS011;31826;53.572;10.170;2023-02-01T15:49:42;13.82;;;2.10;;
46090;SDS011;31826;53.572;10.170;2023-02-01T15:52:34;8.18;;;1.92;;
46090;SDS011;31826;53.572;10.170;2023-02-01T15:54:58;11.05;;;2.58;;
46090;SDS011;31826;53.572;10.170;2023-02-01T15:57:31;11.00;;;2.40;;
46090;SDS011;31826;53.572;10.170;2023-02-01T16:00:03;11.35;;;1.85;;
46090;SDS011;31826;53.572;10.170;2023-02-01T16:02:40;12.67;;;3.00;;
46090;SDS011;31826;53.572;10.170;2023-02-01T16:05:53;10.93;;;1.88;;
46090;SDS011;31826;53.572;10.170;2023-02-01T16:08:13;11.33;;;2.63;;
46090;SDS011;31826;53.572;10.170;2023-02-01T16:10:45;13.73;;;2.50;;
46090;SDS011;31826;53.572;10.170;2023-02-01T16:13:13;17.03;;;3.17;;
46090;SDS011;31826;53.572;10.170;2023-02-01T16:15:39;11.55;;;2.42;;
46090;SDS011;31826;53.572;10.170;2023-02-01T16:18:06;19.30;;;3.72;;
46090;SDS011;31826;53.572;10.170;2023-02-01T16:20:35;16.63;;;3.08;;
46090;SDS011;31826;53.572;10.170;2023-02-01T16:23:02;14.32;;;2.83;;
46090;SDS011;31826;53.572;10.170;2023-02-01T16:25:29;17.83;;;3.60;;
46090;SDS011;31826;53.572;10.170;2023-02-01T16:27:55;16.25;;;3.95;;
46090;SDS011;31826;53.572;10.170;2023-02-01T16:30:21;23.52;;;3.65;;
46090;SDS011;31826;53.572;10.170;2023-02-01T16:32:56;11.95;;;3.35;;
46090;SDS011;31826;53.572;10.170;2023-02-01T16:35:24;16.10;;;3.60;;
46090;SDS011;31826;53.572;10.170;2023-02-01T16:38:00;15.88;;;3.53;;
46090;SDS011;31826;53.572;10.170;2023-02-01T16:40:33;22.38;;;4.28;;
46090;SDS011;31826;53.572;10.170;2023-02-01T16:42:59;20.05;;;4.03;;
46090;SDS011;31826;53.572;10.170;2023-02-01T16:45:25;21.63;;;4.40;;
46090;SDS011;31826;53.572;10.170;2023-02-01T16:47:52;22.42;;;4.10;;
46090;SDS011;31826;53.572;10.170;2023-02-01T16:50:21;17.77;;;4.03;;
46090;SDS011;31826;53.572;10.170;2023-02-01T16:52:49;17.35;;;3.97;;
46090;SDS011;31826;53.572;10.170;2023-02-01T16:55:16;23.05;;;4.38;;
46090;SDS011;31826;53.572;10.170;2023-02-01T16:57:43;13.52;;;3.13;;
46090;SDS011;31826;53.572;10.170;2023-02-01T17:00:10;15.73;;;3.95;;
46090;SDS011;31826;53.572;10.170;2023-02-01T17:02:38;17.95;;;3.33;;